Lock Haven, PA

2:47 PM EST on December 03, 2016 (GMT -0500)
APRSWXNET | | Change Station

Elev 609 ft 41.12 °N, 77.51 °W | Updated 39 minutes ago

Overcast
Overcast
44 °F
Feels Like 41 °F
N
6
Wind Variable Wind from WSW
Gusts 14.0 mph

Today
High -- | Low -- °F
--% Chance of Precip.
Yesterday
High -- | Low -- °F
Precip. -- in
Pressure 30.11 in
Visibility 10.0 miles
Clouds Mostly Cloudy 4500 ft
Overcast 5500 ft
Windchill 41 °F
Dew Point 34 °F
Humidity 68%
Rainfall in
Snow Depth Not available.
7:18 AM 4:41 PM
Waxing Crescent, 16% visible
METAR KIPT 031854Z 30012G18KT 10SM BKN045 OVC055 07/M01 A3010 RMK AO2 SLP196 T00721011
Pressure 30.11 in
Visibility 10.0 miles
Clouds Mostly Cloudy 4500 ft
Overcast 5500 ft
Windchill 41 °F
Dew Point 34 °F
Humidity 68%
Rainfall in
Snow Depth Not available.
7:18 AM 4:41 PM
Waxing Crescent, 16% visible
METAR KIPT 031854Z 30012G18KT 10SM BKN045 OVC055 07/M01 A3010 RMK AO2 SLP196 T00721011

10-Day Weather Forecast

Almanac

Astronomy

Dec. 03, 2016 Rise Set
Actual Time
Civil Twilight
Nautical Twilight
Astronomical Twilight
Moon
Length of Visible Light
Length of Day
Tomorrow will be .
, % of the Moon is Illuminated

Today's Extremes

State Highs State Lows

Community

WunderPhotos

Upload Photos

1,955,481 photos uploaded!

WunderBlog® & News

Nearby

Air Quality

  Air Quality AQ Index Pollutant
Not available.

Snow Depth

Station Depth Elevation

Earthquake Activity

City Distance Mag. Time & Date
Minimum magnitude displayed is 2.5.

Coastal Water Temperatures

Place Temperature

Stations

Nearby Weather Stations

Station Location Temp. Windchill Dew Point Humidity Wind Precip. Elev Updated Type
                   

Watches & Warnings

There are currently no watches in effect.